createdAt,value
2023-06-06T00:00:22.745Z,3.47
2023-06-06T00:02:51.070Z,2.72
2023-06-06T00:05:19.217Z,2.63
2023-06-06T00:07:47.447Z,2.83
2023-06-06T00:10:16.542Z,2.28
2023-06-06T00:12:53.971Z,2.95
2023-06-06T00:15:21.679Z,3.10
2023-06-06T00:17:54.272Z,3.13
2023-06-06T00:20:21.649Z,3.00
2023-06-06T00:22:50.116Z,3.53
2023-06-06T00:25:17.336Z,2.90
2023-06-06T00:27:44.576Z,3.03
2023-06-06T00:30:12.301Z,2.80
2023-06-06T00:32:39.669Z,2.58
2023-06-06T00:35:07.218Z,3.08
2023-06-06T00:37:34.477Z,2.28
2023-06-06T00:40:01.878Z,3.10
2023-06-06T00:42:29.110Z,2.80
2023-06-06T00:44:56.387Z,3.08
2023-06-06T00:47:24.500Z,3.03
2023-06-06T00:49:52.751Z,2.95
2023-06-06T00:52:22.080Z,2.67
2023-06-06T00:54:49.513Z,3.33
2023-06-06T00:57:19.360Z,2.42
2023-06-06T00:59:49.465Z,2.92
2023-06-06T01:02:20.429Z,2.70
2023-06-06T01:04:48.170Z,3.03
2023-06-06T01:07:18.562Z,2.90
2023-06-06T01:09:48.244Z,3.17
2023-06-06T01:12:32.252Z,2.65
2023-06-06T01:15:04.613Z,3.08
2023-06-06T01:17:34.785Z,3.28
2023-06-06T01:20:02.859Z,2.72
2023-06-06T01:22:33.379Z,3.05
2023-06-06T01:25:00.673Z,2.97
2023-06-06T01:27:29.288Z,2.40
2023-06-06T01:29:57.093Z,2.83
2023-06-06T01:32:28.971Z,2.85
2023-06-06T01:35:17.337Z,2.70
2023-06-06T01:38:06.063Z,2.50
2023-06-06T01:40:35.135Z,2.55
2023-06-06T01:43:04.516Z,2.67
2023-06-06T01:45:33.261Z,3.13
2023-06-06T01:48:01.736Z,3.22
2023-06-06T01:50:29.492Z,3.20
2023-06-06T01:52:57.090Z,2.70
2023-06-06T01:55:24.460Z,2.90
2023-06-06T01:57:52.538Z,2.90
2023-06-06T02:00:20.236Z,3.63
2023-06-06T02:02:49.705Z,2.65
2023-06-06T02:05:17.127Z,3.17
2023-06-06T02:07:44.401Z,2.60
2023-06-06T02:10:12.172Z,3.35
2023-06-06T02:12:39.382Z,2.80
2023-06-06T02:15:08.628Z,3.53
2023-06-06T02:17:37.754Z,2.75
2023-06-06T02:20:09.278Z,2.38
2023-06-06T02:22:36.714Z,3.42
2023-06-06T02:25:04.717Z,2.92
2023-06-06T02:27:35.909Z,2.80
2023-06-06T02:30:07.386Z,2.90
2023-06-06T02:32:35.400Z,3.15
2023-06-06T02:35:06.644Z,3.08
2023-06-06T02:37:34.282Z,3.17
2023-06-06T02:40:09.840Z,2.92
2023-06-06T02:42:39.984Z,3.15
2023-06-06T02:45:09.962Z,2.97
2023-06-06T02:47:37.630Z,2.85
2023-06-06T02:50:05.835Z,2.45
2023-06-06T02:52:34.329Z,2.95
2023-06-06T02:55:01.586Z,3.47
2023-06-06T02:57:31.336Z,3.88
2023-06-06T03:00:00.551Z,3.78
2023-06-06T03:02:28.537Z,3.58
2023-06-06T03:04:56.738Z,3.60
2023-06-06T03:07:24.487Z,3.85
2023-06-06T03:09:51.760Z,3.20
2023-06-06T03:12:23.242Z,3.33
2023-06-06T03:14:57.606Z,3.15
2023-06-06T03:17:28.570Z,3.17
2023-06-06T03:19:56.016Z,3.10
2023-06-06T03:22:24.196Z,3.03
2023-06-06T03:24:51.869Z,3.53
2023-06-06T03:27:20.727Z,3.53
2023-06-06T03:29:48.221Z,3.03
2023-06-06T03:32:15.603Z,3.33
2023-06-06T03:34:43.229Z,3.40
2023-06-06T03:37:13.204Z,3.65
2023-06-06T03:39:42.105Z,3.58
2023-06-06T03:42:11.052Z,4.05
2023-06-06T03:44:38.540Z,3.38
2023-06-06T03:47:07.354Z,2.83
2023-06-06T03:49:37.760Z,3.70
2023-06-06T03:52:06.851Z,2.67
2023-06-06T03:54:37.615Z,3.38
2023-06-06T03:57:09.652Z,3.65
2023-06-06T03:59:37.816Z,3.22
2023-06-06T04:02:05.601Z,2.85
2023-06-06T04:04:33.553Z,2.80
2023-06-06T04:07:00.999Z,3.53
2023-06-06T04:09:28.204Z,3.10
2023-06-06T04:11:55.451Z,2.75
2023-06-06T04:14:24.670Z,3.10
2023-06-06T04:16:52.119Z,3.00
2023-06-06T04:19:20.471Z,3.17
2023-06-06T04:21:47.830Z,2.50
2023-06-06T04:24:15.144Z,3.40
2023-06-06T04:26:43.119Z,2.92
2023-06-06T04:29:14.303Z,2.72
2023-06-06T04:31:42.755Z,3.17
2023-06-06T04:34:13.583Z,4.03
2023-06-06T04:36:41.991Z,2.72
2023-06-06T04:39:10.199Z,2.70
2023-06-06T04:44:08.118Z,3.33
2023-06-06T04:46:37.629Z,3.20
2023-06-06T04:49:05.234Z,3.40
2023-06-06T04:51:34.450Z,3.22
2023-06-06T04:54:06.826Z,3.58
2023-06-06T04:56:34.119Z,3.65
2023-06-06T04:59:06.960Z,2.90
2023-06-06T05:01:39.174Z,3.03
2023-06-06T05:04:08.085Z,3.20
2023-06-06T05:06:35.893Z,2.85
2023-06-06T05:09:05.416Z,3.03
2023-06-06T05:11:32.861Z,4.07
2023-06-06T05:14:00.254Z,2.67
2023-06-06T05:16:28.064Z,3.05
2023-06-06T05:18:55.516Z,3.28
2023-06-06T05:21:25.743Z,3.50
2023-06-06T05:23:54.903Z,3.72
2023-06-06T05:26:22.344Z,4.00
2023-06-06T05:28:49.586Z,3.85
2023-06-06T05:31:21.654Z,3.95
2023-06-06T05:33:49.360Z,3.75
2023-06-06T05:36:16.695Z,3.42
2023-06-06T05:38:43.995Z,3.03
2023-06-06T05:41:11.482Z,3.58
2023-06-06T05:43:38.965Z,3.45
2023-06-06T05:46:06.408Z,3.50
2023-06-06T05:48:33.693Z,3.72
2023-06-06T05:51:00.989Z,3.08
2023-06-06T05:53:29.271Z,3.00
2023-06-06T05:55:56.552Z,3.83
2023-06-06T05:58:24.139Z,3.28
2023-06-06T06:00:51.346Z,3.20
2023-06-06T06:03:18.840Z,3.65
2023-06-06T06:05:46.197Z,3.65
2023-06-06T06:08:13.453Z,2.90
2023-06-06T06:10:40.826Z,2.90
2023-06-06T06:13:08.064Z,3.55
2023-06-06T06:15:36.692Z,2.83
2023-06-06T06:18:05.155Z,2.95
2023-06-06T06:20:32.710Z,3.13
2023-06-06T06:22:59.929Z,3.42
2023-06-06T06:25:27.326Z,3.33
2023-06-06T06:27:54.601Z,3.40
2023-06-06T06:30:21.876Z,3.35
2023-06-06T06:32:49.258Z,3.13
2023-06-06T06:35:16.579Z,2.70
2023-06-06T06:37:44.148Z,2.58
2023-06-06T06:40:12.118Z,3.60
2023-06-06T06:42:41.690Z,3.47
2023-06-06T06:45:44.421Z,2.80
2023-06-06T06:48:11.756Z,3.75
2023-06-06T06:50:39.001Z,3.88
2023-06-06T06:53:08.500Z,2.90
2023-06-06T06:55:39.691Z,3.10
2023-06-06T06:58:09.869Z,3.55
2023-06-06T07:00:37.164Z,3.10
2023-06-06T07:03:05.838Z,3.63
2023-06-06T07:05:33.731Z,3.40
2023-06-06T07:08:01.838Z,3.83
2023-06-06T07:10:32.980Z,3.40
2023-06-06T07:13:00.206Z,4.22
2023-06-06T07:15:30.135Z,3.40
2023-06-06T07:17:58.108Z,3.67
2023-06-06T07:20:25.935Z,3.75
2023-06-06T07:22:57.304Z,4.05
2023-06-06T07:25:24.852Z,3.58
2023-06-06T07:27:52.175Z,3.75
2023-06-06T07:30:19.480Z,3.70
2023-06-06T07:32:48.195Z,3.60
2023-06-06T07:35:20.477Z,3.42
2023-06-06T07:37:48.288Z,4.35
2023-06-06T07:40:17.892Z,3.27
2023-06-06T07:42:45.491Z,3.85
2023-06-06T07:45:13.055Z,4.45
2023-06-06T07:47:41.506Z,3.55
2023-06-06T07:50:09.670Z,3.63
2023-06-06T07:52:37.456Z,3.97
2023-06-06T07:55:08.165Z,3.40
2023-06-06T07:57:35.483Z,5.05
2023-06-06T08:00:07.935Z,3.55
2023-06-06T08:02:41.016Z,5.15
2023-06-06T08:05:09.791Z,3.40
2023-06-06T08:07:41.371Z,4.10
2023-06-06T08:10:09.458Z,4.13
2023-06-06T08:12:36.873Z,3.85
2023-06-06T08:15:05.498Z,3.97
2023-06-06T08:17:32.905Z,3.80
2023-06-06T08:20:00.223Z,4.22
2023-06-06T08:22:28.975Z,4.53
2023-06-06T08:24:56.314Z,4.57
2023-06-06T08:27:23.603Z,3.97
2023-06-06T08:29:51.429Z,4.07
2023-06-06T08:32:18.748Z,4.30
2023-06-06T08:34:46.601Z,4.55
2023-06-06T08:37:13.955Z,4.25
2023-06-06T08:39:41.313Z,4.72
2023-06-06T08:42:12.278Z,5.00
2023-06-06T08:44:41.739Z,4.25
2023-06-06T08:47:10.531Z,4.82
2023-06-06T08:49:38.612Z,4.47
2023-06-06T08:52:07.075Z,4.25
2023-06-06T08:54:34.972Z,4.60
2023-06-06T08:57:09.293Z,4.35
2023-06-06T08:59:41.267Z,4.15
2023-06-06T09:02:09.205Z,5.15
2023-06-06T09:04:36.996Z,4.57
2023-06-06T09:07:06.137Z,4.03
2023-06-06T09:09:36.171Z,4.10
2023-06-06T09:12:03.547Z,4.15
2023-06-06T09:14:30.938Z,4.35
2023-06-06T09:16:58.689Z,4.40
2023-06-06T09:19:26.715Z,4.20
2023-06-06T09:21:54.844Z,4.63
2023-06-06T09:24:22.519Z,5.03
2023-06-06T09:26:49.750Z,5.88
2023-06-06T09:29:17.149Z,5.63
2023-06-06T09:31:44.431Z,5.40
2023-06-06T09:34:12.272Z,5.57
2023-06-06T09:36:43.434Z,5.38
2023-06-06T09:39:15.878Z,5.90
2023-06-06T09:41:48.079Z,6.32
2023-06-06T09:44:23.957Z,5.83
2023-06-06T09:46:58.668Z,5.88
2023-06-06T09:49:25.936Z,5.70
2023-06-06T09:51:54.304Z,5.70
2023-06-06T09:54:24.174Z,5.32
2023-06-06T09:56:53.261Z,5.23
2023-06-06T09:59:26.030Z,5.38
2023-06-06T10:02:03.829Z,5.60
2023-06-06T10:04:32.966Z,5.47
2023-06-06T10:07:04.658Z,5.53
2023-06-06T10:09:33.053Z,4.83
2023-06-06T10:12:01.455Z,4.97
2023-06-06T10:14:31.451Z,5.47
2023-06-06T10:17:00.434Z,6.05
2023-06-06T10:19:28.505Z,5.53
2023-06-06T10:21:56.893Z,5.30
2023-06-06T10:24:24.211Z,5.22
2023-06-06T10:27:13.427Z,5.05
2023-06-06T10:29:52.520Z,5.28
2023-06-06T10:32:30.068Z,5.20
2023-06-06T10:34:59.527Z,5.30
2023-06-06T10:37:26.830Z,5.57
2023-06-06T10:40:02.428Z,4.80
2023-06-06T10:42:40.649Z,5.43
2023-06-06T10:45:08.544Z,5.30
2023-06-06T10:47:40.227Z,4.90
2023-06-06T10:50:11.893Z,4.95
2023-06-06T10:52:50.116Z,5.25
2023-06-06T10:55:26.886Z,5.10
2023-06-06T10:58:04.346Z,5.00
2023-06-06T11:00:36.764Z,4.80
2023-06-06T11:03:09.249Z,5.65
2023-06-06T11:06:01.675Z,4.50
2023-06-06T11:08:40.230Z,5.68
2023-06-06T11:11:16.391Z,5.18
2023-06-06T11:13:52.779Z,5.13
2023-06-06T11:16:47.050Z,5.53
2023-06-06T11:19:18.016Z,5.38
2023-06-06T11:21:47.110Z,5.18
2023-06-06T11:24:15.781Z,5.10
2023-06-06T11:26:44.240Z,5.30
2023-06-06T11:29:12.548Z,5.15
2023-06-06T11:31:40.877Z,5.03
2023-06-06T11:34:10.867Z,5.18
2023-06-06T11:36:40.178Z,5.28
2023-06-06T11:39:11.798Z,5.00
2023-06-06T11:41:44.975Z,5.45
2023-06-06T11:44:13.497Z,5.32
2023-06-06T11:46:49.269Z,5.47
2023-06-06T11:49:18.037Z,5.50
2023-06-06T11:52:02.019Z,5.80
2023-06-06T11:54:31.862Z,5.50
2023-06-06T11:57:03.705Z,5.32
2023-06-06T11:59:31.617Z,5.63
2023-06-06T12:01:59.658Z,5.95
2023-06-06T12:04:29.143Z,6.70
2023-06-06T12:06:59.294Z,6.15
2023-06-06T12:09:26.841Z,6.00
2023-06-06T12:12:02.965Z,6.57
2023-06-06T12:14:31.402Z,7.00
2023-06-06T12:17:09.800Z,6.80
2023-06-06T12:19:37.855Z,6.55
2023-06-06T12:22:05.930Z,6.00
2023-06-06T12:24:34.369Z,6.63
2023-06-06T12:27:06.078Z,5.88
2023-06-06T12:29:36.894Z,6.53
2023-06-06T12:32:24.282Z,6.45
2023-06-06T12:35:02.259Z,6.13
2023-06-06T12:37:59.921Z,6.18
2023-06-06T12:40:28.632Z,6.20
2023-06-06T12:43:01.007Z,6.63
2023-06-06T12:45:29.286Z,6.40
2023-06-06T12:47:58.236Z,6.90
2023-06-06T12:50:28.205Z,7.10
2023-06-06T12:52:55.502Z,7.47
2023-06-06T12:55:22.921Z,7.40
2023-06-06T12:57:50.253Z,6.75
2023-06-06T13:00:18.660Z,6.90
2023-06-06T13:02:46.642Z,7.28
2023-06-06T13:05:14.901Z,7.28
2023-06-06T13:07:42.319Z,7.80
2023-06-06T13:10:10.201Z,7.00
2023-06-06T13:12:43.744Z,7.22
2023-06-06T13:15:12.730Z,7.38
2023-06-06T13:17:40.668Z,7.93
2023-06-06T13:20:13.301Z,7.27
2023-06-06T13:22:43.605Z,7.57
2023-06-06T13:25:11.022Z,7.63
2023-06-06T13:27:38.275Z,8.15
2023-06-06T13:30:06.171Z,7.15
2023-06-06T13:32:34.121Z,7.93
2023-06-06T13:35:04.012Z,6.97
2023-06-06T13:37:31.393Z,7.80
2023-06-06T13:39:58.798Z,7.95
2023-06-06T13:42:26.083Z,8.02
2023-06-06T13:44:53.390Z,7.60
2023-06-06T13:47:20.830Z,7.40
2023-06-06T13:49:50.732Z,7.07
2023-06-06T13:52:17.993Z,8.15
2023-06-06T13:54:45.556Z,7.88
2023-06-06T13:57:13.904Z,7.83
2023-06-06T13:59:42.523Z,7.22
2023-06-06T14:02:11.779Z,7.95
2023-06-06T14:04:43.591Z,8.13
2023-06-06T14:07:10.910Z,7.35
2023-06-06T14:09:38.544Z,7.47
2023-06-06T14:12:06.328Z,6.93
2023-06-06T14:14:33.657Z,7.03
2023-06-06T14:17:01.401Z,7.50
2023-06-06T14:19:39.088Z,8.82
2023-06-06T14:22:25.809Z,7.60
2023-06-06T14:24:55.880Z,7.72
2023-06-06T14:27:31.102Z,7.90
2023-06-06T14:29:59.182Z,7.75
2023-06-06T14:32:32.622Z,7.95
2023-06-06T14:35:03.643Z,7.80
2023-06-06T14:37:31.352Z,8.05
2023-06-06T14:40:01.671Z,7.57
2023-06-06T14:42:29.687Z,8.20
2023-06-06T14:44:57.129Z,7.15
2023-06-06T14:47:24.564Z,7.97
2023-06-06T14:49:51.947Z,7.50
2023-06-06T14:52:19.227Z,7.40
2023-06-06T14:54:48.288Z,7.47
2023-06-06T14:57:16.638Z,7.60
2023-06-06T14:59:44.428Z,6.57
2023-06-06T15:02:11.794Z,7.50
2023-06-06T15:04:39.345Z,6.65
2023-06-06T15:07:07.971Z,6.95
2023-06-06T15:09:36.872Z,7.03
2023-06-06T15:12:08.421Z,8.33
2023-06-06T15:14:35.869Z,6.15
2023-06-06T15:17:03.855Z,6.57
2023-06-06T15:19:31.163Z,6.78
2023-06-06T15:22:02.108Z,7.03
2023-06-06T15:24:30.816Z,5.97
2023-06-06T15:27:00.276Z,6.50
2023-06-06T15:29:28.464Z,6.28
2023-06-06T15:31:56.542Z,6.30
2023-06-06T15:34:24.596Z,6.88
2023-06-06T15:36:52.829Z,6.93
2023-06-06T15:39:20.237Z,5.82
2023-06-06T15:41:47.511Z,5.53
2023-06-06T15:44:14.805Z,5.70
2023-06-06T15:46:42.200Z,5.90
2023-06-06T15:49:09.668Z,6.03
2023-06-06T15:51:37.892Z,6.22
2023-06-06T15:54:06.673Z,6.28
2023-06-06T15:56:33.950Z,6.72
2023-06-06T15:59:01.554Z,6.43
2023-06-06T16:01:31.113Z,6.20
2023-06-06T16:03:59.740Z,7.55
2023-06-06T16:06:27.968Z,5.20
2023-06-06T16:08:55.296Z,6.30
2023-06-06T16:11:23.078Z,5.55
2023-06-06T16:13:50.327Z,6.30
2023-06-06T16:16:17.707Z,5.63
2023-06-06T16:18:45.031Z,6.15
2023-06-06T16:21:12.356Z,5.82
2023-06-06T16:23:40.010Z,5.50
2023-06-06T16:26:07.505Z,5.90
2023-06-06T16:28:35.060Z,6.47
2023-06-06T16:31:02.406Z,5.10
2023-06-06T16:33:29.731Z,5.35
2023-06-06T16:35:57.018Z,5.22
2023-06-06T16:38:24.383Z,5.23
2023-06-06T16:40:54.454Z,5.10
2023-06-06T16:43:22.207Z,5.07
2023-06-06T16:45:49.531Z,5.60
2023-06-06T16:48:16.940Z,5.28
2023-06-06T16:50:44.219Z,5.77
2023-06-06T16:53:12.155Z,5.68
2023-06-06T16:55:39.440Z,5.78
2023-06-06T16:58:06.795Z,6.25
2023-06-06T17:00:34.028Z,5.60
2023-06-06T17:03:01.408Z,5.20
2023-06-06T17:05:28.676Z,5.40
2023-06-06T17:07:55.921Z,5.10
2023-06-06T17:10:25.498Z,5.03
2023-06-06T17:12:52.823Z,5.55
2023-06-06T17:15:20.148Z,5.50
2023-06-06T17:17:47.835Z,5.43
2023-06-06T17:20:15.169Z,5.20
2023-06-06T17:22:43.142Z,5.80
2023-06-06T17:25:12.602Z,4.97
2023-06-06T17:27:40.079Z,5.20
2023-06-06T17:30:08.581Z,5.20
2023-06-06T17:32:36.221Z,5.40
2023-06-06T17:35:04.934Z,5.30
2023-06-06T17:37:33.328Z,5.53
2023-06-06T17:40:01.020Z,5.40
2023-06-06T17:42:28.544Z,5.18
2023-06-06T17:44:55.875Z,6.15
2023-06-06T17:47:23.227Z,5.78
2023-06-06T17:49:50.575Z,5.50
2023-06-06T17:52:17.907Z,5.40
2023-06-06T17:54:45.175Z,5.82
2023-06-06T17:57:12.831Z,4.97
2023-06-06T17:59:40.101Z,5.15
2023-06-06T18:02:07.477Z,5.28
2023-06-06T18:04:34.832Z,5.27
2023-06-06T18:07:02.123Z,5.32
2023-06-06T18:09:29.492Z,5.05
2023-06-06T18:11:57.384Z,5.20
2023-06-06T18:14:24.661Z,5.05
2023-06-06T18:16:52.188Z,5.13
2023-06-06T18:19:19.471Z,5.25
2023-06-06T18:21:47.509Z,5.03
2023-06-06T18:24:17.275Z,5.38
2023-06-06T18:26:44.575Z,5.88
2023-06-06T18:29:12.004Z,4.73
2023-06-06T18:31:39.534Z,3.80
2023-06-06T18:34:07.186Z,5.18
2023-06-06T18:36:34.949Z,5.43
2023-06-06T18:39:02.908Z,5.22
2023-06-06T18:41:30.188Z,5.60
2023-06-06T18:43:57.557Z,5.22
2023-06-06T18:46:24.856Z,4.80
2023-06-06T18:48:54.231Z,5.05
2023-06-06T18:51:22.224Z,5.63
2023-06-06T18:53:50.239Z,4.50
2023-06-06T18:56:17.777Z,4.43
2023-06-06T18:58:46.388Z,5.13
2023-06-06T19:01:14.545Z,4.13
2023-06-06T19:03:42.130Z,3.83
2023-06-06T19:06:09.572Z,4.73
2023-06-06T19:08:38.514Z,3.70
2023-06-06T19:11:06.634Z,4.28
2023-06-06T19:13:33.931Z,4.25
2023-06-06T19:16:01.234Z,3.28
2023-06-06T19:18:31.901Z,3.60
2023-06-06T19:20:59.969Z,4.15
2023-06-06T19:23:30.208Z,3.58
2023-06-06T19:25:57.498Z,3.78
2023-06-06T19:28:25.085Z,3.80
2023-06-06T19:30:52.883Z,3.83
2023-06-06T19:33:20.149Z,3.60
2023-06-06T19:35:47.432Z,4.53
2023-06-06T19:38:14.841Z,4.00
2023-06-06T19:40:42.072Z,3.50
2023-06-06T19:43:09.415Z,3.70
2023-06-06T19:45:36.932Z,3.78
2023-06-06T19:48:05.559Z,3.58
2023-06-06T19:50:32.799Z,3.33
2023-06-06T19:53:00.217Z,3.28
2023-06-06T19:55:27.489Z,4.03
2023-06-06T19:57:54.781Z,3.55
2023-06-06T20:00:22.466Z,3.05
2023-06-06T20:02:49.782Z,3.53
2023-06-06T20:05:17.214Z,3.35
2023-06-06T20:07:44.806Z,3.10
2023-06-06T20:10:12.870Z,3.65
2023-06-06T20:12:41.182Z,3.75
2023-06-06T20:15:09.345Z,3.30
2023-06-06T20:17:38.525Z,3.38
2023-06-06T20:20:11.147Z,3.73
2023-06-06T20:22:38.852Z,3.75
2023-06-06T20:25:08.023Z,3.50
2023-06-06T20:27:35.438Z,3.42
2023-06-06T20:30:04.417Z,3.80
2023-06-06T20:32:32.234Z,3.90
2023-06-06T20:34:59.544Z,4.00
2023-06-06T20:37:26.897Z,3.22
2023-06-06T20:40:14.162Z,3.53
2023-06-06T20:42:43.342Z,3.30
2023-06-06T20:45:11.578Z,4.10
2023-06-06T20:47:40.708Z,4.00
2023-06-06T20:50:11.007Z,4.07
2023-06-06T20:52:41.044Z,3.50
2023-06-06T20:55:10.450Z,2.63
2023-06-06T20:57:39.310Z,3.83
2023-06-06T21:00:07.536Z,3.65
2023-06-06T21:02:35.261Z,3.60
2023-06-06T21:05:05.445Z,3.40
2023-06-06T21:07:32.693Z,4.43
2023-06-06T21:10:00.205Z,4.43
2023-06-06T21:12:27.856Z,4.07
2023-06-06T21:14:55.188Z,4.35
2023-06-06T21:17:22.936Z,3.80
2023-06-06T21:19:50.823Z,4.18
2023-06-06T21:22:21.435Z,4.07
2023-06-06T21:24:49.709Z,4.30
2023-06-06T21:27:17.511Z,3.28
2023-06-06T21:29:45.039Z,3.50
2023-06-06T21:32:12.270Z,3.20
2023-06-06T21:34:40.049Z,3.22
2023-06-06T21:37:07.536Z,3.58
2023-06-06T21:39:34.802Z,3.65
2023-06-06T21:42:03.137Z,3.80
2023-06-06T21:44:30.578Z,3.30
2023-06-06T21:46:57.931Z,3.80
2023-06-06T21:49:25.488Z,3.67
2023-06-06T21:51:52.677Z,3.60
2023-06-06T21:54:19.908Z,3.90
2023-06-06T21:56:47.195Z,3.55
2023-06-06T21:59:15.296Z,3.38
2023-06-06T22:01:46.773Z,3.97
2023-06-06T22:04:14.567Z,3.60
2023-06-06T22:06:42.107Z,4.25
2023-06-06T22:09:09.539Z,3.63
2023-06-06T22:11:36.903Z,3.40
2023-06-06T22:14:04.153Z,4.05
2023-06-06T22:16:31.476Z,3.97
2023-06-06T22:18:58.774Z,3.83
2023-06-06T22:21:26.278Z,4.07
2023-06-06T22:23:53.578Z,4.13
2023-06-06T22:26:22.460Z,4.00
2023-06-06T22:28:50.049Z,4.05
2023-06-06T22:31:17.601Z,3.35
2023-06-06T22:33:44.934Z,3.78
2023-06-06T22:36:12.136Z,3.72
2023-06-06T22:38:39.451Z,4.38
2023-06-06T22:41:06.768Z,4.03
2023-06-06T22:43:33.978Z,3.80
2023-06-06T22:46:02.250Z,3.72
2023-06-06T22:48:29.529Z,3.88
2023-06-06T22:50:56.806Z,4.35
2023-06-06T22:53:25.388Z,3.58
2023-06-06T22:55:52.658Z,4.18
2023-06-06T22:58:20.045Z,3.75
2023-06-06T23:00:47.265Z,3.63
2023-06-06T23:03:14.591Z,3.58
2023-06-06T23:05:41.919Z,3.95
2023-06-06T23:08:09.323Z,3.45
2023-06-06T23:10:36.606Z,4.38
2023-06-06T23:13:03.833Z,3.53
2023-06-06T23:15:31.167Z,4.78
2023-06-06T23:17:58.503Z,3.00
2023-06-06T23:20:25.723Z,3.55
2023-06-06T23:22:53.128Z,4.03
2023-06-06T23:25:20.470Z,3.80
2023-06-06T23:27:47.669Z,3.22
2023-06-06T23:30:15.379Z,3.58
2023-06-06T23:32:43.172Z,3.35
2023-06-06T23:35:10.563Z,3.70
2023-06-06T23:37:37.762Z,4.07
2023-06-06T23:40:06.261Z,3.47
2023-06-06T23:42:33.648Z,3.47
2023-06-06T23:45:00.956Z,3.40
2023-06-06T23:47:28.218Z,3.30
2023-06-06T23:49:55.476Z,4.05
2023-06-06T23:52:23.024Z,4.15
2023-06-06T23:54:51.387Z,3.00
2023-06-06T23:57:18.587Z,3.85
2023-06-06T23:59:45.856Z,3.67
